createdAt,value
2022-11-03T00:02:09.888Z,8.40
2022-11-03T00:04:37.473Z,10.67
2022-11-03T00:07:05.331Z,10.37
2022-11-03T00:09:32.981Z,8.33
2022-11-03T00:12:01.914Z,11.37
2022-11-03T00:14:29.778Z,10.63
2022-11-03T00:16:57.380Z,10.43
2022-11-03T00:19:25.235Z,9.37
2022-11-03T00:21:52.952Z,10.77
2022-11-03T00:24:20.938Z,8.33
2022-11-03T00:26:48.559Z,11.63
2022-11-03T00:29:16.588Z,7.53
2022-11-03T00:31:44.982Z,7.90
2022-11-03T00:34:13.123Z,10.63
2022-11-03T00:36:44.683Z,11.70
2022-11-03T00:39:13.376Z,10.43
2022-11-03T00:41:41.457Z,5.83
2022-11-03T00:44:10.827Z,14.63
2022-11-03T00:46:38.515Z,7.80
2022-11-03T00:49:06.396Z,7.43
2022-11-03T00:51:37.024Z,6.30
2022-11-03T00:54:06.006Z,10.90
2022-11-03T00:56:38.961Z,8.23
2022-11-03T00:59:08.346Z,8.20
2022-11-03T01:01:45.259Z,8.97
2022-11-03T01:04:33.898Z,9.87
2022-11-03T01:07:01.943Z,11.90
2022-11-03T01:09:33.438Z,11.40
2022-11-03T01:12:17.417Z,10.30
2022-11-03T01:14:47.774Z,7.80
2022-11-03T01:17:23.452Z,7.07
2022-11-03T01:19:51.841Z,10.53
2022-11-03T01:22:19.913Z,11.37
2022-11-03T01:24:48.058Z,8.70
2022-11-03T01:27:17.312Z,10.30
2022-11-03T01:29:45.167Z,9.80
2022-11-03T01:32:13.240Z,18.20
2022-11-03T01:34:41.216Z,13.07
2022-11-03T01:37:09.038Z,14.67
2022-11-03T01:39:36.884Z,17.63
2022-11-03T01:42:04.579Z,17.97
2022-11-03T01:44:40.567Z,14.70
2022-11-03T01:47:08.123Z,19.57
2022-11-03T01:49:50.547Z,24.83
2022-11-03T01:52:23.937Z,18.83
2022-11-03T01:54:57.995Z,21.07
2022-11-03T01:57:28.072Z,14.67
2022-11-03T01:59:58.175Z,15.30
2022-11-03T02:02:27.460Z,6.90
2022-11-03T02:04:56.704Z,11.40
2022-11-03T02:07:30.061Z,12.97
2022-11-03T02:09:58.034Z,11.80
2022-11-03T02:12:25.871Z,14.17
2022-11-03T02:14:57.414Z,12.17
2022-11-03T02:17:26.851Z,14.90
2022-11-03T02:20:00.197Z,12.37
2022-11-03T02:22:33.572Z,14.23
2022-11-03T02:25:12.673Z,11.27
2022-11-03T02:27:40.373Z,16.87
2022-11-03T02:30:08.462Z,11.63
2022-11-03T02:32:56.379Z,12.23
2022-11-03T02:35:24.293Z,13.93
2022-11-03T02:37:55.364Z,17.43
2022-11-03T02:40:31.350Z,15.97
2022-11-03T02:42:59.976Z,17.70
2022-11-03T02:45:28.737Z,18.87
2022-11-03T02:47:59.333Z,18.93
2022-11-03T02:50:28.236Z,16.43
2022-11-03T02:52:56.115Z,12.10
2022-11-03T02:55:33.383Z,18.60
2022-11-03T02:58:04.015Z,25.83
2022-11-03T03:00:33.768Z,12.13
2022-11-03T03:03:04.863Z,13.70
2022-11-03T03:05:34.862Z,23.73
2022-11-03T03:08:04.999Z,16.53
2022-11-03T03:10:39.010Z,14.37
2022-11-03T03:13:08.449Z,15.23
2022-11-03T03:15:42.603Z,14.87
2022-11-03T03:18:13.029Z,17.23
2022-11-03T03:20:46.717Z,14.80
2022-11-03T03:23:22.306Z,31.33
2022-11-03T03:25:53.886Z,20.03
2022-11-03T03:28:26.137Z,17.97
2022-11-03T03:30:55.742Z,19.17
2022-11-03T03:33:23.683Z,20.90
2022-11-03T03:35:52.014Z,18.73
2022-11-03T03:38:25.856Z,22.33
2022-11-03T03:40:56.451Z,18.83
2022-11-03T03:43:25.441Z,19.93
2022-11-03T03:45:55.810Z,21.97
2022-11-03T03:48:23.697Z,20.27
2022-11-03T03:50:51.722Z,20.17
2022-11-03T03:53:20.030Z,26.40
2022-11-03T03:55:50.295Z,28.07
2022-11-03T03:58:18.100Z,20.67
2022-11-03T04:00:46.076Z,28.03
2022-11-03T04:03:18.391Z,26.57
2022-11-03T04:05:46.715Z,27.33
2022-11-03T04:08:15.151Z,26.37
2022-11-03T04:11:02.733Z,28.00
2022-11-03T04:13:50.961Z,27.43
2022-11-03T04:16:37.333Z,21.50
2022-11-03T04:19:24.241Z,24.53
2022-11-03T04:22:10.622Z,29.77
2022-11-03T04:24:38.534Z,32.13
2022-11-03T04:27:32.495Z,21.27
2022-11-03T04:30:08.605Z,24.97
2022-11-03T04:32:36.666Z,21.17
2022-11-03T04:35:17.838Z,28.63
2022-11-03T04:37:47.865Z,24.33
2022-11-03T04:40:17.336Z,20.57
2022-11-03T04:42:45.491Z,23.87
2022-11-03T04:45:15.733Z,23.53
2022-11-03T04:47:43.361Z,27.07
2022-11-03T04:50:16.033Z,23.73
2022-11-03T04:52:43.897Z,22.90
2022-11-03T04:55:15.627Z,21.33
2022-11-03T04:57:43.973Z,29.73
2022-11-03T05:00:15.170Z,23.33
2022-11-03T05:02:43.270Z,22.30
2022-11-03T05:05:16.276Z,23.93
2022-11-03T05:07:44.305Z,22.80
2022-11-03T05:10:13.858Z,20.37
2022-11-03T05:12:41.906Z,25.13
2022-11-03T05:15:23.549Z,27.07
2022-11-03T05:17:51.520Z,24.73
2022-11-03T05:20:49.726Z,25.33
2022-11-03T05:23:18.984Z,26.20
2022-11-03T05:25:48.539Z,23.03
2022-11-03T05:28:25.073Z,27.27
2022-11-03T05:30:53.140Z,26.10
2022-11-03T05:33:31.503Z,29.80
2022-11-03T05:36:09.466Z,26.00
2022-11-03T05:38:37.285Z,20.60
2022-11-03T05:41:09.598Z,24.77
2022-11-03T05:43:37.473Z,17.37
2022-11-03T05:48:40.010Z,22.63
2022-11-03T05:51:25.658Z,17.60
2022-11-03T05:53:58.471Z,26.97
2022-11-03T05:56:26.559Z,21.93
2022-11-03T05:58:57.293Z,22.67
2022-11-03T06:01:38.278Z,25.80
2022-11-03T06:04:26.986Z,24.77
2022-11-03T06:07:10.752Z,25.63
2022-11-03T06:09:38.950Z,19.60
2022-11-03T06:12:07.404Z,21.27
2022-11-03T06:14:37.184Z,22.07
2022-11-03T06:17:06.243Z,27.50
2022-11-03T06:19:36.014Z,23.37
2022-11-03T06:22:09.209Z,20.30
2022-11-03T06:24:36.893Z,22.40
2022-11-03T06:27:04.911Z,18.97
2022-11-03T06:29:34.013Z,32.90
2022-11-03T06:32:03.217Z,26.07
2022-11-03T06:34:35.251Z,23.53
2022-11-03T06:37:13.493Z,22.00
2022-11-03T06:39:41.729Z,21.90
2022-11-03T06:42:13.785Z,19.80
2022-11-03T06:44:42.570Z,21.80
2022-11-03T06:47:19.791Z,22.10
2022-11-03T06:49:48.495Z,25.60
2022-11-03T06:52:26.116Z,107.00
2022-11-03T06:55:01.255Z,23.03
2022-11-03T06:57:32.352Z,24.33
2022-11-03T07:00:28.114Z,28.43
2022-11-03T07:02:51.226Z,27.37
2022-11-03T07:05:21.959Z,23.00
2022-11-03T07:07:50.179Z,17.83
2022-11-03T07:10:17.853Z,23.30
2022-11-03T07:12:45.864Z,29.37
2022-11-03T07:15:25.476Z,21.87
2022-11-03T07:17:53.721Z,26.70
2022-11-03T07:20:21.885Z,22.53
2022-11-03T07:22:50.276Z,22.43
2022-11-03T07:25:19.978Z,16.07
2022-11-03T07:27:52.496Z,22.77
2022-11-03T07:30:21.533Z,19.93
2022-11-03T07:32:58.139Z,20.03
2022-11-03T07:35:37.548Z,23.97
2022-11-03T07:38:20.006Z,28.40
2022-11-03T07:40:47.993Z,26.13
2022-11-03T07:43:19.039Z,25.13
2022-11-03T07:45:53.543Z,27.80
2022-11-03T07:48:29.382Z,23.20
2022-11-03T07:50:58.102Z,20.90
2022-11-03T07:53:32.612Z,25.57
2022-11-03T07:56:00.747Z,22.07
2022-11-03T07:58:28.899Z,23.67
2022-11-03T08:00:57.987Z,25.53
2022-11-03T08:03:37.485Z,20.67
2022-11-03T08:06:07.531Z,24.87
2022-11-03T08:08:38.606Z,19.23
2022-11-03T08:11:07.058Z,25.13
2022-11-03T08:13:36.456Z,17.20
2022-11-03T08:16:04.855Z,20.53
2022-11-03T08:18:33.220Z,18.77
2022-11-03T08:21:01.827Z,20.03
2022-11-03T08:23:30.224Z,20.57
2022-11-03T08:25:58.359Z,20.30
2022-11-03T08:28:26.542Z,14.87
2022-11-03T08:30:54.241Z,28.47
2022-11-03T08:33:22.330Z,24.03
2022-11-03T08:35:50.214Z,21.50
2022-11-03T08:38:18.277Z,32.10
2022-11-03T08:40:46.007Z,17.83
2022-11-03T08:43:15.151Z,13.67
2022-11-03T08:45:42.878Z,13.30
2022-11-03T08:48:10.854Z,12.83
2022-11-03T08:50:38.576Z,11.60
2022-11-03T08:53:06.498Z,12.30
2022-11-03T08:55:34.434Z,13.70
2022-11-03T08:58:02.426Z,13.48
2022-11-03T09:00:30.097Z,9.63
2022-11-03T09:02:57.999Z,9.73
2022-11-03T09:05:25.826Z,7.80
2022-11-03T09:10:42.611Z,11.88
2022-11-03T09:13:11.143Z,13.35
2022-11-03T09:15:38.990Z,12.43
2022-11-03T09:18:07.109Z,13.10
2022-11-03T09:20:35.303Z,8.67
2022-11-03T09:23:03.162Z,12.03
2022-11-03T09:25:31.126Z,9.20
2022-11-03T09:27:58.796Z,10.50
2022-11-03T09:30:26.694Z,9.17
2022-11-03T09:32:54.256Z,10.00
2022-11-03T09:35:22.364Z,8.40
2022-11-03T09:37:50.224Z,8.90
2022-11-03T09:40:18.481Z,27.43
2022-11-03T09:42:46.135Z,23.67
2022-11-03T09:45:14.068Z,11.73
2022-11-03T09:47:42.293Z,21.17
2022-11-03T09:50:15.256Z,9.18
2022-11-03T09:52:46.188Z,13.57
2022-11-03T09:55:25.547Z,27.10
2022-11-03T09:57:53.856Z,6.75
2022-11-03T10:00:23.227Z,10.00
2022-11-03T10:02:51.409Z,11.25
2022-11-03T10:05:21.539Z,8.02
2022-11-03T10:07:49.508Z,9.75
2022-11-03T10:10:20.365Z,8.45
2022-11-03T10:12:50.093Z,9.27
2022-11-03T10:15:18.447Z,11.05
2022-11-03T10:17:46.710Z,9.88
2022-11-03T10:20:15.778Z,15.38
2022-11-03T10:22:45.199Z,8.80
2022-11-03T10:25:36.204Z,7.53
2022-11-03T10:28:18.104Z,11.27
2022-11-03T10:31:10.736Z,10.57
2022-11-03T10:33:52.111Z,7.93
2022-11-03T10:36:20.536Z,9.38
2022-11-03T10:38:49.492Z,8.35
2022-11-03T10:41:17.619Z,12.50
2022-11-03T10:43:46.405Z,13.38
2022-11-03T10:49:10.496Z,9.18
2022-11-03T10:51:39.073Z,12.02
2022-11-03T10:54:11.230Z,7.63
2022-11-03T10:56:39.375Z,10.48
2022-11-03T10:59:07.340Z,11.25
2022-11-03T11:01:35.620Z,10.50
2022-11-03T11:04:05.228Z,8.75
2022-11-03T11:06:34.536Z,12.07
2022-11-03T11:09:05.521Z,12.35
2022-11-03T11:11:34.058Z,13.13
2022-11-03T11:14:37.464Z,10.77
2022-11-03T11:17:06.880Z,7.57
2022-11-03T11:20:13.086Z,8.02
2022-11-03T11:22:41.407Z,7.95
2022-11-03T11:25:09.238Z,13.77
2022-11-03T11:27:37.779Z,13.90
2022-11-03T11:30:27.504Z,12.50
2022-11-03T11:33:14.547Z,12.13
2022-11-03T11:35:42.305Z,9.38
2022-11-03T11:38:47.367Z,8.85
2022-11-03T11:41:15.785Z,8.20
2022-11-03T11:43:44.808Z,8.18
2022-11-03T11:46:37.585Z,8.38
2022-11-03T11:49:06.209Z,9.07
2022-11-03T11:51:38.012Z,5.75
2022-11-03T11:54:18.387Z,14.85
2022-11-03T11:56:49.297Z,11.98
2022-11-03T11:59:25.708Z,12.00
2022-11-03T12:01:57.484Z,8.90
2022-11-03T12:04:31.739Z,8.70
2022-11-03T12:06:59.833Z,13.35
2022-11-03T12:09:28.742Z,10.75
2022-11-03T12:12:07.959Z,9.20
2022-11-03T12:14:37.987Z,5.82
2022-11-03T12:17:17.331Z,7.75
2022-11-03T12:19:47.122Z,7.57
2022-11-03T12:22:23.711Z,11.07
2022-11-03T12:24:53.557Z,9.80
2022-11-03T12:27:41.654Z,11.88
2022-11-03T12:30:16.112Z,10.07
2022-11-03T12:32:43.828Z,16.73
2022-11-03T12:35:13.765Z,8.02
2022-11-03T12:37:42.286Z,8.23
2022-11-03T12:40:12.268Z,8.23
2022-11-03T12:42:41.299Z,11.35
2022-11-03T12:45:09.357Z,11.55
2022-11-03T12:47:36.754Z,7.60
2022-11-03T12:50:04.581Z,11.68
2022-11-03T12:52:31.846Z,11.43
2022-11-03T12:54:59.369Z,6.53
2022-11-03T12:57:26.654Z,11.05
2022-11-03T12:59:54.750Z,8.63
2022-11-03T13:02:22.313Z,11.98
2022-11-03T13:04:50.192Z,8.65
2022-11-03T13:07:24.105Z,12.10
2022-11-03T13:09:54.390Z,12.35
2022-11-03T13:12:35.320Z,8.93
2022-11-03T13:15:06.031Z,8.82
2022-11-03T13:17:52.081Z,9.48
2022-11-03T13:20:22.239Z,10.85
2022-11-03T13:22:49.842Z,8.32
2022-11-03T13:25:18.967Z,8.77
2022-11-03T13:27:46.845Z,9.02
2022-11-03T13:30:14.594Z,10.80
2022-11-03T13:32:42.327Z,10.77
2022-11-03T13:35:13.711Z,9.13
2022-11-03T13:37:42.294Z,11.63
2022-11-03T13:40:29.221Z,6.40
2022-11-03T13:42:59.970Z,9.90
2022-11-03T13:45:27.787Z,10.60
2022-11-03T13:49:05.309Z,6.30
2022-11-03T13:50:42.982Z,7.78
2022-11-03T13:56:03.090Z,5.70
2022-11-03T14:01:23.637Z,11.68
2022-11-03T14:06:40.293Z,6.70
2022-11-03T14:09:07.732Z,11.93
2022-11-03T14:11:54.682Z,10.82
2022-11-03T14:14:22.455Z,15.10
2022-11-03T14:16:50.484Z,11.40
2022-11-03T14:19:18.252Z,11.27
2022-11-03T14:21:46.232Z,12.15
2022-11-03T14:24:14.009Z,13.07
2022-11-03T14:26:43.219Z,12.18
2022-11-03T14:29:11.550Z,14.10
2022-11-03T14:31:39.231Z,16.38
2022-11-03T14:34:06.551Z,12.82
2022-11-03T14:36:34.460Z,10.90
2022-11-03T14:39:02.491Z,11.35
2022-11-03T14:41:49.046Z,15.07
2022-11-03T14:44:16.709Z,12.20
2022-11-03T14:46:44.473Z,10.20
2022-11-03T14:49:11.879Z,16.70
2022-11-03T14:51:39.985Z,10.07
2022-11-03T14:54:08.617Z,37.77
2022-11-03T14:56:36.528Z,22.37
2022-11-03T14:59:04.695Z,22.07
2022-11-03T15:01:33.426Z,15.47
2022-11-03T15:04:01.788Z,20.37
2022-11-03T15:06:29.646Z,14.70
2022-11-03T15:08:57.874Z,14.77
2022-11-03T15:11:25.809Z,19.43
2022-11-03T15:13:55.497Z,12.20
2022-11-03T15:16:24.026Z,13.97
2022-11-03T15:18:52.129Z,17.67
2022-11-03T15:21:19.882Z,18.03
2022-11-03T15:26:35.890Z,35.83
2022-11-03T15:29:04.283Z,89.07
2022-11-03T15:31:32.127Z,147.23
2022-11-03T15:34:03.013Z,108.43
2022-11-03T15:36:34.485Z,134.17
2022-11-03T15:39:02.770Z,69.90
2022-11-03T15:41:30.860Z,30.93
2022-11-03T15:43:59.189Z,29.50
2022-11-03T15:46:27.396Z,29.90
2022-11-03T15:48:56.678Z,24.47
2022-11-03T15:51:24.640Z,26.40
2022-11-03T15:53:58.207Z,67.27
2022-11-03T15:56:29.848Z,57.83
2022-11-03T15:58:58.069Z,73.63
2022-11-03T16:01:26.082Z,97.00
2022-11-03T16:03:54.581Z,74.83
2022-11-03T16:06:35.105Z,86.27
2022-11-03T16:09:10.664Z,78.03
2022-11-03T16:11:38.398Z,63.97
2022-11-03T16:14:06.268Z,55.57
2022-11-03T16:16:34.589Z,69.03
2022-11-03T16:19:02.784Z,33.83
2022-11-03T16:21:31.602Z,34.57
2022-11-03T16:23:59.570Z,23.67
2022-11-03T16:26:28.091Z,18.53
2022-11-03T16:28:56.495Z,16.57
2022-11-03T16:31:24.925Z,25.30
2022-11-03T16:33:52.698Z,17.97
2022-11-03T16:36:21.064Z,25.07
2022-11-03T16:38:48.773Z,27.37
2022-11-03T16:41:17.210Z,30.00
2022-11-03T16:43:46.460Z,32.17
2022-11-03T16:46:14.632Z,44.80
2022-11-03T16:48:42.393Z,39.60
2022-11-03T16:51:10.652Z,38.63
2022-11-03T16:53:38.361Z,34.00
2022-11-03T16:56:06.434Z,48.73
2022-11-03T16:58:34.325Z,56.90
2022-11-03T17:01:03.536Z,47.00
2022-11-03T17:03:31.449Z,45.50
2022-11-03T17:05:59.656Z,67.83
2022-11-03T17:11:15.583Z,47.67
2022-11-03T17:13:43.463Z,59.53
2022-11-03T17:16:11.645Z,475.43
2022-11-03T17:18:39.403Z,193.97
2022-11-03T17:21:07.732Z,99.57
2022-11-03T17:23:35.406Z,115.63
2022-11-03T17:26:04.095Z,352.60
2022-11-03T17:28:31.906Z,537.83
2022-11-03T17:31:00.031Z,508.67
2022-11-03T17:33:27.922Z,338.03
2022-11-03T17:35:56.180Z,217.93
2022-11-03T17:38:25.210Z,116.43
2022-11-03T17:40:53.296Z,87.53
2022-11-03T17:43:30.438Z,61.70
2022-11-03T17:45:58.157Z,61.10
2022-11-03T17:48:26.099Z,47.93
2022-11-03T17:50:56.297Z,87.03
2022-11-03T17:53:28.631Z,121.63
2022-11-03T17:56:27.813Z,162.93
2022-11-03T17:58:47.285Z,260.90
2022-11-03T18:01:27.628Z,187.40
2022-11-03T18:03:55.426Z,211.30
2022-11-03T18:06:23.254Z,265.33
2022-11-03T18:08:50.988Z,289.30
2022-11-03T18:11:46.050Z,274.70
2022-11-03T18:14:13.800Z,233.83
2022-11-03T18:16:41.658Z,247.47
2022-11-03T18:19:14.829Z,295.67
2022-11-03T18:21:44.082Z,359.77
2022-11-03T18:24:13.020Z,294.83
2022-11-03T18:26:41.554Z,223.93
2022-11-03T18:29:09.742Z,239.77
2022-11-03T18:31:49.918Z,142.80
2022-11-03T18:34:24.310Z,161.17
2022-11-03T18:36:53.078Z,99.47
2022-11-03T18:39:28.015Z,91.60
2022-11-03T18:41:56.458Z,113.03
2022-11-03T18:44:28.645Z,128.93
2022-11-03T18:46:59.435Z,108.93
2022-11-03T18:49:27.943Z,84.50
2022-11-03T18:52:03.573Z,76.60
2022-11-03T18:54:34.438Z,84.17
2022-11-03T18:57:03.157Z,74.53
2022-11-03T18:59:37.873Z,60.80
2022-11-03T19:02:18.730Z,51.50
2022-11-03T19:04:47.160Z,69.93
2022-11-03T19:07:21.225Z,56.67
2022-11-03T19:09:49.380Z,53.57
2022-11-03T19:12:17.853Z,63.23
2022-11-03T19:14:46.416Z,63.57
2022-11-03T19:17:25.155Z,80.93
2022-11-03T19:19:53.995Z,67.73
2022-11-03T19:22:23.996Z,59.87
2022-11-03T19:24:52.472Z,76.77
2022-11-03T19:27:26.282Z,63.77
2022-11-03T19:29:55.064Z,101.13
2022-11-03T19:32:27.450Z,84.13
2022-11-03T19:35:00.923Z,65.93
2022-11-03T19:37:36.102Z,61.00
2022-11-03T19:40:09.283Z,67.13
2022-11-03T19:42:38.274Z,65.17
2022-11-03T19:50:50.983Z,82.13
2022-11-03T20:03:42.503Z,64.20
2022-11-03T20:06:16.684Z,63.03
2022-11-03T20:08:47.620Z,59.73
2022-11-03T20:11:17.250Z,62.27
2022-11-03T20:13:47.825Z,59.83
2022-11-03T20:16:18.022Z,72.97
2022-11-03T20:18:46.061Z,68.80
2022-11-03T20:21:18.179Z,65.93
2022-11-03T20:23:50.553Z,70.00
2022-11-03T20:26:23.332Z,55.90
2022-11-03T20:28:53.395Z,51.87
2022-11-03T20:31:22.787Z,46.93
2022-11-03T20:33:52.496Z,49.40
2022-11-03T20:36:21.553Z,63.57
2022-11-03T20:38:59.658Z,49.27
2022-11-03T20:41:31.885Z,52.90
2022-11-03T20:44:00.356Z,50.83
2022-11-03T20:46:34.914Z,59.80
2022-11-03T20:49:05.070Z,51.40
2022-11-03T20:51:36.668Z,61.47
2022-11-03T20:54:16.911Z,59.97
2022-11-03T20:56:46.171Z,50.20
2022-11-03T20:59:24.386Z,57.27
2022-11-03T21:01:52.914Z,44.97
2022-11-03T21:04:21.483Z,60.30
2022-11-03T21:06:50.879Z,54.83
2022-11-03T21:09:20.775Z,66.70
2022-11-03T21:11:49.685Z,53.13
2022-11-03T21:14:29.977Z,49.20
2022-11-03T21:17:17.481Z,55.23
2022-11-03T21:20:09.834Z,46.23
2022-11-03T21:22:58.179Z,45.23
2022-11-03T21:25:27.778Z,44.83
2022-11-03T21:27:56.237Z,41.83
2022-11-03T21:30:24.744Z,52.37
2022-11-03T21:32:53.483Z,51.27
2022-11-03T21:35:22.743Z,55.27
2022-11-03T21:37:52.429Z,48.70
2022-11-03T21:40:21.176Z,45.13
2022-11-03T21:43:08.298Z,52.83
2022-11-03T21:45:36.874Z,62.13
2022-11-03T21:48:24.571Z,58.23
2022-11-03T21:50:53.070Z,48.23
2022-11-03T21:53:21.574Z,51.00
2022-11-03T21:55:50.452Z,52.07
2022-11-03T21:58:19.693Z,46.30
2022-11-03T22:00:48.720Z,45.13
2022-11-03T22:03:17.312Z,43.60
2022-11-03T22:05:45.654Z,36.37
2022-11-03T22:08:15.331Z,45.00
2022-11-03T22:10:43.503Z,41.43
2022-11-03T22:13:12.093Z,38.47
2022-11-03T22:15:58.958Z,43.30
2022-11-03T22:18:27.358Z,38.57
2022-11-03T22:21:16.622Z,41.77
2022-11-03T22:24:13.974Z,38.63
2022-11-03T22:26:57.641Z,35.10
2022-11-03T22:29:44.315Z,33.63
2022-11-03T22:32:15.706Z,32.80
2022-11-03T22:35:03.034Z,33.23
2022-11-03T22:40:17.725Z,37.33
2022-11-03T22:43:04.533Z,34.10
2022-11-03T22:45:51.294Z,30.37
2022-11-03T22:48:19.611Z,29.03
2022-11-03T22:50:47.888Z,33.27
2022-11-03T22:53:34.279Z,36.10
2022-11-03T22:56:02.555Z,30.60
2022-11-03T22:58:30.878Z,34.53
2022-11-03T23:05:06.936Z,27.00
2022-11-03T23:07:40.853Z,30.03
2022-11-03T23:10:09.372Z,28.77
2022-11-03T23:12:37.424Z,41.93
2022-11-03T23:15:24.294Z,47.00
2022-11-03T23:18:11.008Z,47.83
2022-11-03T23:20:57.280Z,38.03
2022-11-03T23:23:44.157Z,559.67
2022-11-03T23:26:11.601Z,209.27
2022-11-03T23:28:39.684Z,229.77
2022-11-03T23:31:07.814Z,252.13
2022-11-03T23:33:36.030Z,516.10
2022-11-03T23:36:09.357Z,877.53
2022-11-03T23:38:39.857Z,663.60
2022-11-03T23:41:13.363Z,564.00
2022-11-03T23:43:43.294Z,389.80
2022-11-03T23:46:31.823Z,399.87
2022-11-03T23:49:00.251Z,227.33
2022-11-03T23:51:29.803Z,631.10
2022-11-03T23:53:59.330Z,372.67
2022-11-03T23:56:47.729Z,216.73
2022-11-03T23:59:17.364Z,149.00
